Time;durP1;ratioP1;P1;durP2;ratioP2;P2;SDS_P1;SDS_P2;PMS_P1;PMS_P2;Temp;Humidity;BMP_temperature;BMP_pressure;BME280_temperature;BME280_humidity;BME280_pressure;Samples;Min_cycle;Max_cycle;Signal;HPM_P1;HPM_P2
2022/06/15 00:02:22;;;;;;;19.85;9.65;;;;;;;;;;4910387;28;20404;-62
2022/06/15 00:04:51;;;;;;;15.77;9.43;;;;;;;;;;4916461;29;20024;-63
2022/06/15 00:07:17;;;;;;;20.05;9.52;;;;;;;;;;4910005;28;20029;-62
2022/06/15 00:09:43;;;;;;;18.50;10.68;;;;;;;;;;4912739;28;20404;-62
2022/06/15 00:12:09;;;;;;;18.42;9.70;;;;;;;;;;4912540;29;20026;-63
2022/06/15 00:14:35;;;;;;;16.30;9.43;;;;;;;;;;4912674;28;20031;-62
2022/06/15 00:17:01;;;;;;;18.85;9.73;;;;;;;;;;4910950;28;20055;-62
2022/06/15 00:19:27;;;;;;;16.90;9.63;;;;;;;;;;4911751;28;20445;-63
2022/06/15 00:21:53;;;;;;;17.70;9.75;;;;;;;;;;4910850;28;20119;-61
2022/06/15 00:24:19;;;;;;;19.67;10.00;;;;;;;;;;4912421;28;20111;-62
2022/06/15 00:26:45;;;;;;;16.20;9.38;;;;;;;;;;4912469;29;20028;-62
2022/06/15 00:29:11;;;;;;;19.45;10.25;;;;;;;;;;4912001;28;20074;-61
2022/06/15 00:31:37;;;;;;;17.35;10.02;;;;;;;;;;4912544;29;20062;-62
2022/06/15 00:34:03;;;;;;;20.33;9.88;;;;;;;;;;4912449;29;20055;-63
2022/06/15 00:36:29;;;;;;;18.15;9.65;;;;;;;;;;4910820;28;20486;-62
2022/06/15 00:38:56;;;;;;;19.00;10.38;;;;;;;;;;4911967;28;20365;-61
2022/06/15 00:41:25;;;;;;;18.15;9.55;;;;;;;;;;4912510;29;20035;-65
2022/06/15 00:43:56;;;;;;;17.05;9.50;;;;;;;;;;4912406;28;20040;-63
2022/06/15 00:46:39;;;;;;;23.50;13.93;;;;;;;;;;4912651;28;20036;-61
2022/06/15 00:49:08;;;;;;;21.88;14.38;;;;;;;;;;4912024;29;20572;-63
2022/06/15 00:51:35;;;;;;;17.58;10.07;;;;;;;;;;4912765;29;20032;-63
2022/06/15 00:54:02;;;;;;;18.70;10.30;;;;;;;;;;4911055;28;20024;-63
2022/06/15 00:56:30;;;;;;;18.50;10.82;;;;;;;;;;4912114;29;20029;-62
2022/06/15 00:58:58;;;;;;;17.23;9.30;;;;;;;;;;4911614;29;20076;-63
2022/06/15 01:01:24;;;;;;;18.08;9.65;;;;;;;;;;4912126;28;20086;-63
2022/06/15 01:03:51;;;;;;;18.27;8.93;;;;;;;;;;4912083;29;20028;-63
2022/06/15 01:06:18;;;;;;;16.38;9.52;;;;;;;;;;4911715;28;20163;-61
2022/06/15 01:09:01;;;;;;;19.65;9.73;;;;;;;;;;4911460;28;20036;-61
2022/06/15 01:11:49;;;;;;;20.83;10.80;;;;;;;;;;4912224;29;20484;-62
2022/06/15 01:14:17;;;;;;;19.23;9.50;;;;;;;;;;4912288;29;20094;-63
2022/06/15 01:16:53;;;;;;;17.80;10.35;;;;;;;;;;4912206;28;20033;-63
2022/06/15 01:19:26;;;;;;;18.13;10.07;;;;;;;;;;4912042;29;20079;-64
2022/06/15 01:22:21;;;;;;;17.48;9.32;;;;;;;;;;4912299;29;20028;-64
2022/06/15 01:24:59;;;;;;;16.67;9.05;;;;;;;;;;4876922;29;20056;-63
2022/06/15 01:27:34;;;;;;;17.23;9.80;;;;;;;;;;4911277;28;20032;-63
2022/06/15 01:30:20;;;;;;;18.00;10.10;;;;;;;;;;4912105;28;20408;-63
2022/06/15 01:32:46;;;;;;;19.60;9.45;;;;;;;;;;4911843;29;20020;-63
2022/06/15 01:35:15;;;;;;;18.25;9.18;;;;;;;;;;4912227;29;20388;-63
2022/06/15 01:38:01;;;;;;;17.88;9.15;;;;;;;;;;4934674;23;20051;-60
2022/06/15 01:40:35;;;;;;;18.88;10.00;;;;;;;;;;4960644;28;20139;-61
2022/06/15 01:43:06;;;;;;;18.33;10.27;;;;;;;;;;4950915;29;20036;-60
2022/06/15 01:45:33;;;;;;;18.77;9.55;;;;;;;;;;4951027;29;20088;-59
2022/06/15 01:48:00;;;;;;;18.80;9.10;;;;;;;;;;4950100;29;20376;-60
2022/06/15 01:50:29;;;;;;;19.67;10.00;;;;;;;;;;4950818;28;20027;-60
2022/06/15 01:53:01;;;;;;;18.35;10.00;;;;;;;;;;4950955;28;20118;-60
2022/06/15 01:55:33;;;;;;;18.60;10.00;;;;;;;;;;4950791;28;20027;-60
2022/06/15 01:58:02;;;;;;;19.02;9.48;;;;;;;;;;4950013;28;20031;-59
2022/06/15 02:00:30;;;;;;;22.35;9.68;;;;;;;;;;4951145;28;20107;-61
2022/06/15 02:03:07;;;;;;;17.58;9.73;;;;;;;;;;4933740;28;20031;-60
2022/06/15 02:05:53;;;;;;;16.98;9.82;;;;;;;;;;4933671;28;20479;-61
2022/06/15 02:08:42;;;;;;;16.58;9.20;;;;;;;;;;4949642;29;20080;-59
2022/06/15 02:11:28;;;;;;;17.70;9.23;;;;;;;;;;4933516;29;20399;-60
2022/06/15 02:14:10;;;;;;;19.23;9.55;;;;;;;;;;4933121;29;20046;-60
2022/06/15 02:16:40;;;;;;;17.95;9.35;;;;;;;;;;4950489;28;20039;-61
2022/06/15 02:19:08;;;;;;;21.00;9.10;;;;;;;;;;4932623;28;20120;-60
2022/06/15 02:21:36;;;;;;;19.05;9.50;;;;;;;;;;4950654;29;20102;-60
2022/06/15 02:24:03;;;;;;;18.27;9.40;;;;;;;;;;4950407;28;20039;-60
2022/06/15 02:26:33;;;;;;;15.27;8.98;;;;;;;;;;4952614;28;20274;-60
2022/06/15 02:29:19;;;;;;;17.27;8.77;;;;;;;;;;4935713;28;20077;-59
2022/06/15 02:31:45;;;;;;;18.17;9.40;;;;;;;;;;4953349;28;20110;-61
2022/06/15 02:34:11;;;;;;;17.10;9.30;;;;;;;;;;4936435;28;20043;-58
2022/06/15 02:36:38;;;;;;;19.63;9.68;;;;;;;;;;4953660;28;20031;-59
2022/06/15 02:39:05;;;;;;;18.52;8.93;;;;;;;;;;4952492;28;20046;-60
2022/06/15 02:41:31;;;;;;;17.58;8.95;;;;;;;;;;4953412;28;20491;-60
2022/06/15 02:43:58;;;;;;;17.45;9.23;;;;;;;;;;4953417;28;20043;-58
2022/06/15 02:46:26;;;;;;;17.20;9.13;;;;;;;;;;4953634;28;20099;-61
2022/06/15 02:48:52;;;;;;;17.35;9.35;;;;;;;;;;4952554;29;20027;-59
2022/06/15 02:51:21;;;;;;;18.20;8.68;;;;;;;;;;4953350;29;20039;-61
2022/06/15 02:53:49;;;;;;;19.17;9.20;;;;;;;;;;4936083;28;20173;-59
2022/06/15 02:56:16;;;;;;;17.65;9.77;;;;;;;;;;4953574;29;20067;-60
2022/06/15 02:58:44;;;;;;;19.17;9.50;;;;;;;;;;4938923;28;20050;-58
2022/06/15 03:01:10;;;;;;;17.92;9.40;;;;;;;;;;4954319;28;20102;-59
2022/06/15 03:03:37;;;;;;;16.67;8.77;;;;;;;;;;4954224;28;20639;-60
2022/06/15 03:06:03;;;;;;;15.52;8.50;;;;;;;;;;4954323;29;20369;-60
2022/06/15 03:08:29;;;;;;;17.55;9.25;;;;;;;;;;4952954;29;20020;-61
2022/06/15 03:10:55;;;;;;;18.20;9.73;;;;;;;;;;4953908;28;20026;-59
2022/06/15 03:13:21;;;;;;;18.42;9.50;;;;;;;;;;4953924;29;20534;-61
2022/06/15 03:15:47;;;;;;;19.38;10.02;;;;;;;;;;4954623;28;20023;-59
2022/06/15 03:18:13;;;;;;;18.05;9.10;;;;;;;;;;4936118;28;20272;-57
2022/06/15 03:20:39;;;;;;;20.35;9.40;;;;;;;;;;4954749;28;20162;-61
2022/06/15 03:23:06;;;;;;;17.40;9.43;;;;;;;;;;4954387;28;20597;-59
2022/06/15 03:25:33;;;;;;;20.83;9.77;;;;;;;;;;4955512;28;20110;-60
2022/06/15 03:27:59;;;;;;;20.00;9.60;;;;;;;;;;4954529;28;20027;-57
2022/06/15 03:30:25;;;;;;;18.65;8.60;;;;;;;;;;4938629;28;20104;-59
2022/06/15 03:32:51;;;;;;;16.58;9.05;;;;;;;;;;4955480;29;20031;-59
2022/06/15 03:35:17;;;;;;;15.88;8.93;;;;;;;;;;4955427;29;20036;-57
2022/06/15 03:37:43;;;;;;;18.33;9.25;;;;;;;;;;4953532;28;20039;-59
2022/06/15 03:40:10;;;;;;;17.27;9.13;;;;;;;;;;4955118;28;20019;-60
2022/06/15 03:42:39;;;;;;;18.48;9.00;;;;;;;;;;4955835;28;20065;-60
2022/06/15 03:45:06;;;;;;;17.60;8.60;;;;;;;;;;4953883;28;20027;-61
2022/06/15 03:47:31;;;;;;;15.85;8.73;;;;;;;;;;4952331;28;20066;-58
2022/06/15 03:49:57;;;;;;;16.35;8.55;;;;;;;;;;4953035;29;20023;-57
2022/06/15 03:52:25;;;;;;;15.52;8.80;;;;;;;;;;4936005;28;20122;-58
2022/06/15 03:54:51;;;;;;;18.23;9.18;;;;;;;;;;4953364;29;20023;-59
2022/06/15 03:57:18;;;;;;;17.63;9.80;;;;;;;;;;4952789;28;20030;-60
2022/06/15 03:59:45;;;;;;;19.38;10.00;;;;;;;;;;4953065;28;20024;-61
2022/06/15 04:02:11;;;;;;;21.27;12.30;;;;;;;;;;4953437;29;20023;-60
2022/06/15 04:04:37;;;;;;;18.35;9.50;;;;;;;;;;4954303;28;20341;-58
2022/06/15 04:07:03;;;;;;;18.10;9.88;;;;;;;;;;4954500;28;20085;-60
2022/06/15 04:09:30;;;;;;;16.75;9.65;;;;;;;;;;4953732;28;20032;-60
2022/06/15 04:12:01;;;;;;;19.85;10.40;;;;;;;;;;4954429;28;20468;-58
2022/06/15 04:14:28;;;;;;;22.05;10.25;;;;;;;;;;4936977;28;20027;-60
2022/06/15 04:16:54;;;;;;;17.20;10.10;;;;;;;;;;4953127;28;20032;-62
2022/06/15 04:19:27;;;;;;;18.80;10.00;;;;;;;;;;4951218;28;20529;-61
2022/06/15 04:21:54;;;;;;;18.00;10.45;;;;;;;;;;4934526;28;20031;-60
2022/06/15 04:24:20;;;;;;;20.58;9.80;;;;;;;;;;4951558;28;20114;-58
2022/06/15 04:26:47;;;;;;;20.80;10.32;;;;;;;;;;4951369;28;20032;-60
2022/06/15 04:29:14;;;;;;;18.80;10.00;;;;;;;;;;4950809;29;20028;-59
2022/06/15 04:31:40;;;;;;;18.15;10.75;;;;;;;;;;4951546;28;20066;-59
2022/06/15 04:34:07;;;;;;;18.85;11.40;;;;;;;;;;4951457;28;20028;-61
2022/06/15 04:36:33;;;;;;;20.27;10.45;;;;;;;;;;4951832;28;20027;-61
2022/06/15 04:39:00;;;;;;;17.08;11.27;;;;;;;;;;4950660;29;20043;-59
2022/06/15 04:41:26;;;;;;;22.27;11.23;;;;;;;;;;4951645;29;20426;-58
2022/06/15 04:43:52;;;;;;;18.17;11.07;;;;;;;;;;4951349;29;20046;-60
2022/06/15 04:46:18;;;;;;;23.25;11.73;;;;;;;;;;4934158;28;20031;-58
2022/06/15 04:48:44;;;;;;;18.08;11.05;;;;;;;;;;4950064;29;20019;-59
2022/06/15 04:51:21;;;;;;;19.63;10.93;;;;;;;;;;4951490;28;20388;-60
2022/06/15 04:53:48;;;;;;;17.13;11.13;;;;;;;;;;4951544;29;20427;-61
2022/06/15 04:56:14;;;;;;;17.95;10.93;;;;;;;;;;4951356;28;20039;-57
2022/06/15 04:58:40;;;;;;;22.10;11.85;;;;;;;;;;4950497;28;20062;-59
2022/06/15 05:01:07;;;;;;;20.73;11.15;;;;;;;;;;4951444;28;20023;-60
2022/06/15 05:03:36;;;;;;;28.23;18.50;;;;;;;;;;4950971;29;20031;-60
2022/06/15 05:06:07;;;;;;;23.40;15.18;;;;;;;;;;4950961;29;20034;-59
2022/06/15 05:08:33;;;;;;;23.05;11.80;;;;;;;;;;4950286;29;20028;-61
2022/06/15 05:11:00;;;;;;;22.38;11.57;;;;;;;;;;4951127;28;20026;-60
2022/06/15 05:13:27;;;;;;;19.42;11.10;;;;;;;;;;4950882;28;20034;-59
2022/06/15 05:15:53;;;;;;;18.20;10.90;;;;;;;;;;4950747;28;20034;-57
2022/06/15 05:18:19;;;;;;;22.58;12.70;;;;;;;;;;4930602;28;20032;-60
2022/06/15 05:20:45;;;;;;;19.65;12.60;;;;;;;;;;4947699;29;20371;-60
2022/06/15 05:23:14;;;;;;;21.35;12.20;;;;;;;;;;4950416;28;20034;-59
2022/06/15 05:25:40;;;;;;;19.58;11.48;;;;;;;;;;4950527;28;20027;-58
2022/06/15 05:28:08;;;;;;;27.40;18.92;;;;;;;;;;4938151;29;20031;-58
2022/06/15 05:30:33;;;;;;;19.08;11.25;;;;;;;;;;4931192;28;20050;-58
2022/06/15 05:32:59;;;;;;;19.17;12.07;;;;;;;;;;4931108;28;20031;-60
2022/06/15 05:35:25;;;;;;;18.55;11.20;;;;;;;;;;4933453;28;20476;-60
2022/06/15 05:37:51;;;;;;;22.50;14.48;;;;;;;;;;4949231;28;20039;-59
2022/06/15 05:40:17;;;;;;;20.77;12.45;;;;;;;;;;4950218;28;20038;-55
2022/06/15 05:42:43;;;;;;;24.25;15.30;;;;;;;;;;4950013;28;20038;-59
2022/06/15 05:45:10;;;;;;;25.45;16.77;;;;;;;;;;4950376;28;20395;-60
2022/06/15 05:47:36;;;;;;;19.88;12.23;;;;;;;;;;4949818;28;20024;-59
2022/06/15 05:50:03;;;;;;;17.55;11.45;;;;;;;;;;4950520;29;20031;-59
2022/06/15 05:52:29;;;;;;;19.60;11.50;;;;;;;;;;4948353;29;20356;-60
2022/06/15 05:54:58;;;;;;;21.55;12.55;;;;;;;;;;4931360;28;20032;-58
2022/06/15 05:57:24;;;;;;;20.10;13.35;;;;;;;;;;4930428;28;20016;-58
2022/06/15 05:59:51;;;;;;;26.65;11.77;;;;;;;;;;4931203;28;20052;-57
2022/06/15 06:02:18;;;;;;;18.10;11.48;;;;;;;;;;4934734;28;20044;-59
2022/06/15 06:04:44;;;;;;;19.13;11.63;;;;;;;;;;4934359;28;20039;-59
2022/06/15 06:07:11;;;;;;;18.63;11.00;;;;;;;;;;4933689;28;20051;-59
2022/06/15 06:09:37;;;;;;;21.52;12.27;;;;;;;;;;4916911;28;20077;-58
2022/06/15 06:12:06;;;;;;;27.60;11.80;;;;;;;;;;4917156;28;20476;-58
2022/06/15 06:14:32;;;;;;;19.17;12.23;;;;;;;;;;4934523;28;20059;-58
2022/06/15 06:16:58;;;;;;;19.50;11.73;;;;;;;;;;4917269;28;20055;-59
2022/06/15 06:19:24;;;;;;;20.65;13.07;;;;;;;;;;4935523;28;20027;-58
2022/06/15 06:21:50;;;;;;;20.08;11.95;;;;;;;;;;4953408;28;20387;-61
2022/06/15 06:24:16;;;;;;;18.42;10.85;;;;;;;;;;4953309;29;20026;-62
2022/06/15 06:26:42;;;;;;;19.77;12.00;;;;;;;;;;4953155;28;20442;-60
2022/06/15 06:29:12;;;;;;;18.60;11.15;;;;;;;;;;4952446;29;20050;-61
2022/06/15 06:31:38;;;;;;;19.85;11.15;;;;;;;;;;4935998;28;20376;-61
2022/06/15 06:34:04;;;;;;;21.45;11.18;;;;;;;;;;4952993;29;20034;-59
2022/06/15 06:36:35;;;;;;;20.58;11.48;;;;;;;;;;4953129;28;20365;-60
2022/06/15 06:39:02;;;;;;;19.25;10.77;;;;;;;;;;4952131;29;20085;-60
2022/06/15 06:41:29;;;;;;;17.17;11.10;;;;;;;;;;4953149;28;20030;-60
2022/06/15 06:43:55;;;;;;;18.42;11.25;;;;;;;;;;4952642;28;20027;-60
2022/06/15 06:46:21;;;;;;;18.35;10.93;;;;;;;;;;4953001;28;20051;-59
2022/06/15 06:48:48;;;;;;;20.75;12.07;;;;;;;;;;4952359;28;20019;-60
2022/06/15 06:51:14;;;;;;;22.98;15.10;;;;;;;;;;4935747;28;20023;-60
2022/06/15 06:53:40;;;;;;;20.52;11.52;;;;;;;;;;4949661;28;20024;-58
2022/06/15 06:56:07;;;;;;;18.90;11.73;;;;;;;;;;4933580;29;20035;-60
2022/06/15 06:58:33;;;;;;;22.67;10.82;;;;;;;;;;4932726;29;20063;-61
2022/06/15 07:01:00;;;;;;;20.42;11.05;;;;;;;;;;4933532;29;20032;-61
2022/06/15 07:03:29;;;;;;;17.67;10.73;;;;;;;;;;4933714;29;20032;-59
2022/06/15 07:06:07;;;;;;;19.17;10.73;;;;;;;;;;4933552;29;20023;-59
2022/06/15 07:08:41;;;;;;;19.27;11.23;;;;;;;;;;4932827;29;20475;-60
2022/06/15 07:11:08;;;;;;;19.95;11.73;;;;;;;;;;4933126;29;20068;-59
2022/06/15 07:13:34;;;;;;;18.38;11.68;;;;;;;;;;4933751;28;20028;-60
2022/06/15 07:16:03;;;;;;;19.45;11.45;;;;;;;;;;4933673;29;20111;-60
2022/06/15 07:18:29;;;;;;;19.75;11.95;;;;;;;;;;4932589;29;20103;-61
2022/06/15 07:20:55;;;;;;;19.35;12.40;;;;;;;;;;4945648;28;20128;-59
2022/06/15 07:23:21;;;;;;;19.45;11.45;;;;;;;;;;4935605;28;20118;-61
2022/06/15 07:25:47;;;;;;;16.70;10.65;;;;;;;;;;4952619;28;20020;-60
2022/06/15 07:28:13;;;;;;;20.27;11.18;;;;;;;;;;4934693;28;20455;-61
2022/06/15 07:30:39;;;;;;;20.17;11.70;;;;;;;;;;4935383;28;20034;-61
2022/06/15 07:33:05;;;;;;;18.70;11.35;;;;;;;;;;4952376;28;20554;-61
2022/06/15 07:35:32;;;;;;;21.45;11.57;;;;;;;;;;4935717;28;20063;-59
2022/06/15 07:37:58;;;;;;;17.08;10.90;;;;;;;;;;4970375;23;20506;-63
2022/06/15 07:40:25;;;;;;;17.45;11.48;;;;;;;;;;4933447;29;20479;-63
2022/06/15 07:42:52;;;;;;;21.60;12.65;;;;;;;;;;4950286;29;20036;-65
2022/06/15 07:45:19;;;;;;;19.67;12.32;;;;;;;;;;4950256;29;20353;-62
2022/06/15 07:50:30;;;;;;;18.40;11.45;;;;;;;;;;4950730;29;20086;-62
2022/06/15 07:52:56;;;;;;;23.00;10.82;;;;;;;;;;4950566;29;20035;-63
2022/06/15 07:55:25;;;;;;;16.73;10.98;;;;;;;;;;4950633;28;20035;-63
2022/06/15 07:57:51;;;;;;;18.23;11.32;;;;;;;;;;4932125;28;20024;-64
2022/06/15 08:00:17;;;;;;;18.48;11.27;;;;;;;;;;4949948;28;20023;-62
2022/06/15 08:02:43;;;;;;;22.10;11.50;;;;;;;;;;4949863;28;20051;-62
2022/06/15 08:05:10;;;;;;;18.20;10.70;;;;;;;;;;4950167;28;20101;-62
2022/06/15 08:07:36;;;;;;;18.98;11.43;;;;;;;;;;4949328;29;20027;-62
2022/06/15 08:10:03;;;;;;;20.35;10.98;;;;;;;;;;4950351;28;20153;-63
2022/06/15 08:12:29;;;;;;;17.65;11.52;;;;;;;;;;4950356;29;20024;-62
2022/06/15 08:14:57;;;;;;;16.58;10.50;;;;;;;;;;4932868;28;20020;-62
2022/06/15 08:17:38;;;;;;;22.45;11.27;;;;;;;;;;4949669;28;20458;-60
2022/06/15 08:20:10;;;;;;;20.55;11.38;;;;;;;;;;4950133;28;20595;-62
2022/06/15 08:22:39;;;;;;;16.58;10.95;;;;;;;;;;4949291;28;20035;-62
2022/06/15 08:25:06;;;;;;;20.75;10.90;;;;;;;;;;4949668;29;20020;-62
2022/06/15 08:27:32;;;;;;;17.58;11.85;;;;;;;;;;4948682;28;20032;-62
2022/06/15 08:29:59;;;;;;;19.38;11.50;;;;;;;;;;4932524;28;20047;-62
2022/06/15 08:32:25;;;;;;;20.27;11.30;;;;;;;;;;4949513;28;20023;-60
2022/06/15 08:34:51;;;;;;;18.17;11.23;;;;;;;;;;4949917;29;20031;-61
2022/06/15 08:37:18;;;;;;;17.38;10.95;;;;;;;;;;4949182;29;20094;-59
2022/06/15 08:39:44;;;;;;;21.58;11.90;;;;;;;;;;4911851;28;1114247;-61
2022/06/15 08:42:20;;;;;;;16.33;10.73;;;;;;;;;;4950336;28;20509;-59
2022/06/15 08:44:49;;;;;;;21.27;11.35;;;;;;;;;;4950373;28;20031;-61
2022/06/15 08:47:28;;;;;;;17.92;11.35;;;;;;;;;;4950389;29;20061;-60
2022/06/15 08:50:13;;;;;;;19.00;11.55;;;;;;;;;;4951247;29;20024;-61
2022/06/15 08:52:47;;;;;;;17.08;11.27;;;;;;;;;;4950894;28;20051;-60
2022/06/15 08:55:43;;;;;;;17.60;11.02;;;;;;;;;;4951250;29;20038;-60
2022/06/15 08:58:15;;;;;;;17.05;11.40;;;;;;;;;;4949667;29;20055;-56
2022/06/15 09:00:41;;;;;;;20.13;11.20;;;;;;;;;;4944557;29;20028;-61
2022/06/15 09:03:23;;;;;;;17.20;12.10;;;;;;;;;;4950272;29;20123;-58
2022/06/15 09:06:25;;;;;;;19.05;11.98;;;;;;;;;;4951147;28;20403;-61
2022/06/15 09:09:09;;;;;;;17.38;11.50;;;;;;;;;;4950322;29;20110;-60
2022/06/15 09:11:50;;;;;;;16.63;11.27;;;;;;;;;;4951119;28;20028;-59
2022/06/15 09:14:23;;;;;;;17.98;13.13;;;;;;;;;;4950867;28;20084;-62
2022/06/15 09:16:49;;;;;;;18.73;12.10;;;;;;;;;;4950585;29;20039;-62
2022/06/15 09:19:16;;;;;;;18.33;11.63;;;;;;;;;;4950074;29;20028;-60
2022/06/15 09:21:43;;;;;;;20.87;12.27;;;;;;;;;;4950295;28;20491;-60
2022/06/15 09:24:16;;;;;;;17.42;12.38;;;;;;;;;;4933519;28;20027;-62
2022/06/15 09:26:49;;;;;;;19.42;12.45;;;;;;;;;;4950757;28;20019;-59
2022/06/15 09:29:18;;;;;;;18.33;11.73;;;;;;;;;;4948751;29;20030;-62
2022/06/15 09:31:49;;;;;;;20.92;12.70;;;;;;;;;;4940714;28;20024;-59
2022/06/15 09:34:18;;;;;;;18.55;12.27;;;;;;;;;;4951046;28;20500;-62
2022/06/15 09:36:49;;;;;;;18.77;12.60;;;;;;;;;;4953959;29;20035;-60
2022/06/15 09:39:16;;;;;;;18.58;12.15;;;;;;;;;;4953343;28;20043;-58
2022/06/15 09:41:44;;;;;;;18.90;12.55;;;;;;;;;;4953843;29;20085;-59
2022/06/15 09:44:24;;;;;;;17.17;12.15;;;;;;;;;;4953418;28;20031;-60
2022/06/15 09:46:53;;;;;;;20.38;12.70;;;;;;;;;;4953818;28;20391;-62
2022/06/15 09:49:34;;;;;;;18.10;12.65;;;;;;;;;;4952994;29;20106;-60
2022/06/15 09:52:18;;;;;;;20.08;11.98;;;;;;;;;;4953937;28;20070;-62
2022/06/15 09:54:50;;;;;;;18.77;12.32;;;;;;;;;;4937084;28;20433;-61
2022/06/15 09:57:17;;;;;;;17.13;11.82;;;;;;;;;;4936071;28;20031;-60
2022/06/15 09:59:43;;;;;;;20.83;12.88;;;;;;;;;;4953481;29;20027;-61
2022/06/15 10:02:30;;;;;;;20.42;12.73;;;;;;;;;;4936953;28;20055;-62
2022/06/15 10:04:57;;;;;;;17.60;12.07;;;;;;;;;;4953639;29;20031;-60
2022/06/15 10:07:26;;;;;;;20.50;12.55;;;;;;;;;;4952512;28;20020;-58
2022/06/15 10:09:54;;;;;;;20.00;12.50;;;;;;;;;;4953712;29;20106;-59
2022/06/15 10:15:07;;;;;;;19.67;12.50;;;;;;;;;;4953419;29;19914;-61
2022/06/15 10:17:34;;;;;;;21.35;11.75;;;;;;;;;;4935637;28;20027;-60
2022/06/15 10:20:00;;;;;;;19.80;12.47;;;;;;;;;;4958389;28;20030;-63
2022/06/15 10:22:31;;;;;;;19.08;12.50;;;;;;;;;;4973400;28;20062;-64
2022/06/15 10:24:58;;;;;;;19.30;13.25;;;;;;;;;;4973128;28;20406;-55
2022/06/15 10:27:24;;;;;;;20.17;13.15;;;;;;;;;;4971825;28;20042;-66
2022/06/15 10:30:02;;;;;;;23.92;13.50;;;;;;;;;;4955481;28;20034;-63
2022/06/15 10:32:29;;;;;;;20.33;12.13;;;;;;;;;;4973050;28;20102;-61
2022/06/15 10:35:15;;;;;;;22.35;13.15;;;;;;;;;;4973235;28;20148;-65
2022/06/15 10:37:44;;;;;;;20.05;12.63;;;;;;;;;;4954695;28;20055;-65
2022/06/15 10:40:22;;;;;;;18.38;12.20;;;;;;;;;;4974195;28;20045;-65
2022/06/15 10:42:54;;;;;;;20.67;12.32;;;;;;;;;;4972516;28;20087;-65
2022/06/15 10:45:22;;;;;;;18.38;12.55;;;;;;;;;;4972756;28;20022;-64
2022/06/15 10:48:00;;;;;;;17.58;12.27;;;;;;;;;;4971174;28;20080;-65
2022/06/15 10:50:26;;;;;;;18.63;12.13;;;;;;;;;;4972472;28;20469;-58
2022/06/15 10:53:12;;;;;;;18.63;11.75;;;;;;;;;;4972586;28;20039;-64
2022/06/15 11:04:24;;;;;;;20.02;12.30;;;;;;;;;;4972080;28;20125;-65
2022/06/15 11:06:52;;;;;;;21.02;12.43;;;;;;;;;;4970032;28;20138;-65
2022/06/15 11:09:30;;;;;;;20.15;12.50;;;;;;;;;;4970307;28;20031;-64
2022/06/15 11:11:57;;;;;;;19.55;12.45;;;;;;;;;;4971515;28;20035;-63
2022/06/15 11:14:25;;;;;;;19.60;12.43;;;;;;;;;;4971355;28;20033;-64
2022/06/15 11:19:56;;;;;;;19.48;12.80;;;;;;;;;;4967612;28;20071;-65
2022/06/15 11:22:24;;;;;;;20.63;12.65;;;;;;;;;;4933400;28;20479;-65
2022/06/15 11:24:50;;;;;;;20.13;12.30;;;;;;;;;;4933099;28;20035;-66
2022/06/15 11:27:24;;;;;;;20.75;13.20;;;;;;;;;;4915120;28;20097;-63
2022/06/15 11:29:52;;;;;;;19.33;12.07;;;;;;;;;;4932817;29;20376;-65
2022/06/15 11:32:31;;;;;;;18.92;13.57;;;;;;;;;;4933350;29;20070;-65
2022/06/15 11:35:03;;;;;;;21.45;12.82;;;;;;;;;;4933315;29;20068;-65
2022/06/15 11:37:35;;;;;;;19.98;12.70;;;;;;;;;;4932268;29;20032;-65
2022/06/15 11:40:07;;;;;;;19.13;12.70;;;;;;;;;;4932888;28;20179;-68
2022/06/15 11:42:34;;;;;;;20.77;13.13;;;;;;;;;;4932993;29;20055;-65
2022/06/15 11:45:00;;;;;;;19.75;12.82;;;;;;;;;;4932655;28;20028;-66
2022/06/15 11:47:48;;;;;;;17.63;13.00;;;;;;;;;;4931968;29;20030;-64
2022/06/15 11:50:26;;;;;;;19.77;12.57;;;;;;;;;;4932903;28;20107;-65
2022/06/15 11:53:06;;;;;;;20.48;13.40;;;;;;;;;;4932668;29;20103;-65
2022/06/15 11:56:11;;;;;;;18.98;12.27;;;;;;;;;;4932589;29;20048;-65
2022/06/15 11:58:46;;;;;;;20.13;12.82;;;;;;;;;;4950537;28;20023;-65
2022/06/15 12:01:12;;;;;;;17.20;12.60;;;;;;;;;;4952285;28;20024;-65
2022/06/15 12:03:41;;;;;;;18.05;12.57;;;;;;;;;;4941555;29;20089;-65
2022/06/15 12:06:11;;;;;;;19.27;12.95;;;;;;;;;;4915350;28;20031;-65
2022/06/15 12:08:45;;;;;;;20.35;13.00;;;;;;;;;;4931070;28;20377;-65
2022/06/15 12:14:34;;;;;;;20.10;13.70;;;;;;;;;;4952124;29;20484;-65
2022/06/15 12:17:03;;;;;;;17.33;12.57;;;;;;;;;;4916376;29;20085;-65
2022/06/15 12:19:39;;;;;;;19.02;12.90;;;;;;;;;;5068392;28;20924;-63
2022/06/15 12:22:05;;;;;;;19.88;13.73;;;;;;;;;;5070188;28;20094;-65
2022/06/15 12:24:38;;;;;;;17.98;12.82;;;;;;;;;;5068749;28;20017;-63
2022/06/15 12:27:07;;;;;;;23.30;13.10;;;;;;;;;;5068126;28;20049;-64
2022/06/15 12:29:42;;;;;;;17.23;12.90;;;;;;;;;;5066307;28;20033;-64
2022/06/15 12:35:01;;;;;;;18.67;13.23;;;;;;;;;;5028458;28;20033;-62
2022/06/15 12:37:27;;;;;;;17.35;12.63;;;;;;;;;;5027723;28;20470;-64
2022/06/15 12:40:10;;;;;;;19.92;13.57;;;;;;;;;;5028418;28;20028;-64
2022/06/15 12:42:36;;;;;;;19.67;13.35;;;;;;;;;;5008899;28;20022;-64
2022/06/15 12:45:14;;;;;;;18.20;12.93;;;;;;;;;;5008955;28;20525;-63
2022/06/15 12:47:40;;;;;;;17.23;13.55;;;;;;;;;;5007929;28;20576;-62
2022/06/15 12:50:18;;;;;;;18.20;13.38;;;;;;;;;;5008359;28;20026;-60
2022/06/15 12:52:50;;;;;;;18.85;13.60;;;;;;;;;;5008746;28;20441;-61
2022/06/15 12:55:43;;;;;;;17.33;12.98;;;;;;;;;;4875834;28;10001137;-63
2022/06/15 12:58:22;;;;;;;17.92;13.45;;;;;;;;;;4996055;28;20239;-64
2022/06/15 13:00:51;;;;;;;17.85;13.43;;;;;;;;;;5003727;28;20047;-64
2022/06/15 13:03:34;;;;;;;16.52;13.63;;;;;;;;;;5004817;28;20053;-64
2022/06/15 13:06:18;;;;;;;19.13;13.90;;;;;;;;;;4992820;28;20479;-64
2022/06/15 13:08:58;;;;;;;18.35;13.45;;;;;;;;;;4984844;28;20027;-62
2022/06/15 13:11:24;;;;;;;18.45;13.18;;;;;;;;;;4983974;28;20034;-62
2022/06/15 13:13:52;;;;;;;18.40;13.95;;;;;;;;;;4990303;28;20036;-63
2022/06/15 13:16:35;;;;;;;18.30;13.20;;;;;;;;;;4995224;28;20510;-64
2022/06/15 13:19:03;;;;;;;18.00;13.68;;;;;;;;;;4994066;28;20018;-63
2022/06/15 13:21:48;;;;;;;19.48;13.85;;;;;;;;;;5000580;28;20400;-62
2022/06/15 13:24:14;;;;;;;19.15;13.43;;;;;;;;;;5003476;28;20156;-62
2022/06/15 13:26:41;;;;;;;15.63;12.68;;;;;;;;;;5003977;28;20081;-62
2022/06/15 13:29:10;;;;;;;17.20;12.80;;;;;;;;;;5002091;28;20023;-63
2022/06/15 13:31:48;;;;;;;18.15;13.18;;;;;;;;;;4636397;28;10000123;-64
2022/06/15 13:34:14;;;;;;;17.85;13.20;;;;;;;;;;4972545;28;20451;-64
2022/06/15 13:36:43;;;;;;;18.92;12.90;;;;;;;;;;4972502;28;20375;-65
2022/06/15 13:39:47;;;;;;;19.63;12.63;;;;;;;;;;4971269;28;20027;-65
2022/06/15 13:42:25;;;;;;;16.48;12.77;;;;;;;;;;4972166;28;20030;-65
2022/06/15 13:45:12;;;;;;;17.50;12.73;;;;;;;;;;4971717;28;20061;-66
2022/06/15 13:47:57;;;;;;;18.67;12.93;;;;;;;;;;4970069;28;20793;-65
2022/06/15 13:50:43;;;;;;;18.83;13.32;;;;;;;;;;4971654;28;20031;-64
2022/06/15 13:53:23;;;;;;;18.08;13.13;;;;;;;;;;4970381;28;20031;-64
2022/06/15 13:55:55;;;;;;;17.08;12.90;;;;;;;;;;4975150;28;20058;-64
2022/06/15 13:58:24;;;;;;;17.55;13.30;;;;;;;;;;4978748;28;20058;-65
2022/06/15 14:00:53;;;;;;;17.75;13.65;;;;;;;;;;4971712;28;20034;-65
2022/06/15 14:03:38;;;;;;;16.52;12.80;;;;;;;;;;4971904;28;20030;-64
2022/06/15 14:06:27;;;;;;;18.52;13.00;;;;;;;;;;4979283;28;20057;-64
2022/06/15 14:09:03;;;;;;;17.88;13.13;;;;;;;;;;4969756;28;21469;-65
2022/06/15 14:11:47;;;;;;;19.27;13.45;;;;;;;;;;4979560;28;20348;-65
2022/06/15 14:14:26;;;;;;;18.90;13.05;;;;;;;;;;4981517;28;20517;-66
2022/06/15 14:17:10;;;;;;;16.75;13.20;;;;;;;;;;4981199;28;20809;-65
2022/06/15 14:19:39;;;;;;;18.27;13.32;;;;;;;;;;4979399;28;20538;-65
2022/06/15 14:22:08;;;;;;;16.58;12.98;;;;;;;;;;4980204;28;20030;-65
2022/06/15 14:24:35;;;;;;;19.00;14.07;;;;;;;;;;4979164;28;20093;-65
2022/06/15 14:27:03;;;;;;;21.90;18.95;;;;;;;;;;4981748;28;20030;-66
2022/06/15 14:29:44;;;;;;;18.80;14.15;;;;;;;;;;4980499;28;20061;-66
2022/06/15 14:32:25;;;;;;;18.45;13.63;;;;;;;;;;4980615;28;20034;-66
2022/06/15 14:34:51;;;;;;;16.77;13.23;;;;;;;;;;4980994;28;20482;-65
2022/06/15 14:37:21;;;;;;;16.88;13.05;;;;;;;;;;4979395;28;20450;-66
2022/06/15 14:39:49;;;;;;;19.75;13.52;;;;;;;;;;4977705;28;20027;-65
2022/06/15 14:42:21;;;;;;;17.30;13.65;;;;;;;;;;4979546;28;20022;-66
2022/06/15 14:44:48;;;;;;;16.77;13.40;;;;;;;;;;4976739;28;20030;-66
2022/06/15 14:47:17;;;;;;;17.75;13.43;;;;;;;;;;4979278;28;20058;-66
2022/06/15 14:49:48;;;;;;;17.00;13.23;;;;;;;;;;4979099;28;20109;-66
2022/06/15 14:52:32;;;;;;;20.92;13.73;;;;;;;;;;4979209;28;20085;-66
2022/06/15 14:55:05;;;;;;;17.77;13.15;;;;;;;;;;4979900;28;20041;-66
2022/06/15 14:57:36;;;;;;;17.63;13.40;;;;;;;;;;4988519;28;20034;-65
2022/06/15 15:00:11;;;;;;;16.95;14.18;;;;;;;;;;4988664;28;20022;-65
2022/06/15 15:02:43;;;;;;;16.50;13.57;;;;;;;;;;4988484;28;20117;-65